sensor_id;sensor_type;location;lat;lon;timestamp;temperature;humidity
45807;DHT22;31507;51.494;7.518;2023-02-28T00:00:21;-1.20;99.90
45807;DHT22;31507;51.494;7.518;2023-02-28T00:02:47;-1.30;99.90
45807;DHT22;31507;51.494;7.518;2023-02-28T00:05:16;-1.30;99.90
45807;DHT22;31507;51.494;7.518;2023-02-28T00:07:42;-1.40;99.90
45807;DHT22;31507;51.494;7.518;2023-02-28T00:10:11;-1.50;99.90
45807;DHT22;31507;51.494;7.518;2023-02-28T00:12:37;-1.50;99.90
45807;DHT22;31507;51.494;7.518;2023-02-28T00:15:09;-1.60;99.90
45807;DHT22;31507;51.494;7.518;2023-02-28T00:17:36;-1.60;99.90
45807;DHT22;31507;51.494;7.518;2023-02-28T00:20:03;-1.60;99.90
45807;DHT22;31507;51.494;7.518;2023-02-28T00:22:30;-1.60;99.90
45807;DHT22;31507;51.494;7.518;2023-02-28T00:24:56;-1.60;99.90
45807;DHT22;31507;51.494;7.518;2023-02-28T00:27:21;-1.60;99.90
45807;DHT22;31507;51.494;7.518;2023-02-28T00:29:47;-1.60;99.90
45807;DHT22;31507;51.494;7.518;2023-02-28T00:32:13;-1.70;99.90
45807;DHT22;31507;51.494;7.518;2023-02-28T00:34:39;-1.70;99.90
45807;DHT22;31507;51.494;7.518;2023-02-28T00:37:06;-1.70;99.90
45807;DHT22;31507;51.494;7.518;2023-02-28T00:39:34;-1.80;99.90
45807;DHT22;31507;51.494;7.518;2023-02-28T00:42:01;-1.90;99.90
45807;DHT22;31507;51.494;7.518;2023-02-28T00:44:27;-1.90;99.90
45807;DHT22;31507;51.494;7.518;2023-02-28T00:46:53;-2.00;99.90
45807;DHT22;31507;51.494;7.518;2023-02-28T00:49:20;-2.10;99.90
45807;DHT22;31507;51.494;7.518;2023-02-28T00:51:46;-2.10;99.90
45807;DHT22;31507;51.494;7.518;2023-02-28T00:54:11;-2.10;99.90
45807;DHT22;31507;51.494;7.518;2023-02-28T00:56:37;-2.20;99.90
45807;DHT22;31507;51.494;7.518;2023-02-28T00:59:03;-2.30;99.90
45807;DHT22;31507;51.494;7.518;2023-02-28T01:01:28;-2.30;99.90
45807;DHT22;31507;51.494;7.518;2023-02-28T01:03:54;-2.40;99.90
45807;DHT22;31507;51.494;7.518;2023-02-28T01:06:19;-2.40;99.90
45807;DHT22;31507;51.494;7.518;2023-02-28T01:08:45;-2.40;99.90
45807;DHT22;31507;51.494;7.518;2023-02-28T01:11:12;-2.40;99.90
45807;DHT22;31507;51.494;7.518;2023-02-28T01:13:40;-2.40;99.90
45807;DHT22;31507;51.494;7.518;2023-02-28T01:16:06;-2.40;99.90
45807;DHT22;31507;51.494;7.518;2023-02-28T01:18:32;-2.50;99.90
45807;DHT22;31507;51.494;7.518;2023-02-28T01:20:57;-2.60;99.90
45807;DHT22;31507;51.494;7.518;2023-02-28T01:23:23;-2.60;99.90
45807;DHT22;31507;51.494;7.518;2023-02-28T01:25:50;-2.70;99.90
45807;DHT22;31507;51.494;7.518;2023-02-28T01:28:16;-2.80;99.90
45807;DHT22;31507;51.494;7.518;2023-02-28T01:30:41;-2.80;99.90
45807;DHT22;31507;51.494;7.518;2023-02-28T01:33:07;-2.90;99.90
45807;DHT22;31507;51.494;7.518;2023-02-28T01:35:34;-3.00;99.90
45807;DHT22;31507;51.494;7.518;2023-02-28T01:38:00;-3.00;99.90
45807;DHT22;31507;51.494;7.518;2023-02-28T01:40:25;-3.10;99.90
45807;DHT22;31507;51.494;7.518;2023-02-28T01:42:51;-3.10;99.90
45807;DHT22;31507;51.494;7.518;2023-02-28T01:45:26;-3.00;99.90
45807;DHT22;31507;51.494;7.518;2023-02-28T01:47:55;-3.00;99.90
45807;DHT22;31507;51.494;7.518;2023-02-28T01:50:26;-3.10;99.90
45807;DHT22;31507;51.494;7.518;2023-02-28T01:52:57;-3.10;99.90
45807;DHT22;31507;51.494;7.518;2023-02-28T01:55:26;-3.10;99.90
45807;DHT22;31507;51.494;7.518;2023-02-28T01:57:58;-3.10;99.90
45807;DHT22;31507;51.494;7.518;2023-02-28T02:00:26;-3.10;99.90
45807;DHT22;31507;51.494;7.518;2023-02-28T02:02:55;-3.20;99.90
45807;DHT22;31507;51.494;7.518;2023-02-28T02:05:24;-3.20;99.90
45807;DHT22;31507;51.494;7.518;2023-02-28T02:07:56;-3.10;99.90
45807;DHT22;31507;51.494;7.518;2023-02-28T02:24:28;-3.00;99.90
45807;DHT22;31507;51.494;7.518;2023-02-28T02:30:08;-3.10;99.90
45807;DHT22;31507;51.494;7.518;2023-02-28T02:35:26;-3.10;99.90
45807;DHT22;31507;51.494;7.518;2023-02-28T02:38:08;-3.10;99.90
45807;DHT22;31507;51.494;7.518;2023-02-28T02:40:42;-3.10;99.90
45807;DHT22;31507;51.494;7.518;2023-02-28T02:43:34;-3.10;99.90
45807;DHT22;31507;51.494;7.518;2023-02-28T02:46:13;-3.00;99.90
45807;DHT22;31507;51.494;7.518;2023-02-28T02:48:41;-3.00;99.90
45807;DHT22;31507;51.494;7.518;2023-02-28T02:51:12;-3.10;99.90
45807;DHT22;31507;51.494;7.518;2023-02-28T02:53:46;-3.00;99.90
45807;DHT22;31507;51.494;7.518;2023-02-28T02:56:17;-3.00;99.90
45807;DHT22;31507;51.494;7.518;2023-02-28T02:58:43;-3.00;99.90
45807;DHT22;31507;51.494;7.518;2023-02-28T03:01:20;-3.00;99.90
45807;DHT22;31507;51.494;7.518;2023-02-28T03:03:57;-3.00;99.90
45807;DHT22;31507;51.494;7.518;2023-02-28T03:06:25;-3.10;99.90
45807;DHT22;31507;51.494;7.518;2023-02-28T03:08:51;-3.10;99.90
45807;DHT22;31507;51.494;7.518;2023-02-28T03:11:17;-3.10;99.90
45807;DHT22;31507;51.494;7.518;2023-02-28T03:14:02;-3.10;99.90
45807;DHT22;31507;51.494;7.518;2023-02-28T03:19:24;-3.20;99.90
45807;DHT22;31507;51.494;7.518;2023-02-28T03:35:47;-3.70;99.90
45807;DHT22;31507;51.494;7.518;2023-02-28T03:38:46;-3.70;99.90
45807;DHT22;31507;51.494;7.518;2023-02-28T03:44:03;-3.70;99.90
45807;DHT22;31507;51.494;7.518;2023-02-28T03:46:33;-3.70;99.90
45807;DHT22;31507;51.494;7.518;2023-02-28T03:51:26;-3.80;99.90
45807;DHT22;31507;51.494;7.518;2023-02-28T03:54:21;-3.80;99.90
45807;DHT22;31507;51.494;7.518;2023-02-28T03:57:12;-3.80;99.90
45807;DHT22;31507;51.494;7.518;2023-02-28T03:59:46;-3.80;99.90
45807;DHT22;31507;51.494;7.518;2023-02-28T04:02:13;-3.80;99.90
45807;DHT22;31507;51.494;7.518;2023-02-28T04:04:38;-3.80;99.90
45807;DHT22;31507;51.494;7.518;2023-02-28T04:07:11;-3.70;99.90
45807;DHT22;31507;51.494;7.518;2023-02-28T04:09:37;-3.70;99.90
45807;DHT22;31507;51.494;7.518;2023-02-28T04:12:03;-3.70;99.90
45807;DHT22;31507;51.494;7.518;2023-02-28T04:14:29;-3.70;99.90
45807;DHT22;31507;51.494;7.518;2023-02-28T04:16:54;-3.70;99.90
45807;DHT22;31507;51.494;7.518;2023-02-28T04:19:20;-3.60;99.90
45807;DHT22;31507;51.494;7.518;2023-02-28T04:21:49;-3.60;99.90
45807;DHT22;31507;51.494;7.518;2023-02-28T04:24:26;-3.50;99.90
45807;DHT22;31507;51.494;7.518;2023-02-28T04:26:54;-3.50;99.90
45807;DHT22;31507;51.494;7.518;2023-02-28T04:29:25;-3.50;99.90
45807;DHT22;31507;51.494;7.518;2023-02-28T04:31:51;-3.50;99.90
45807;DHT22;31507;51.494;7.518;2023-02-28T04:34:19;-3.50;99.90
45807;DHT22;31507;51.494;7.518;2023-02-28T04:36:47;-3.60;99.90
45807;DHT22;31507;51.494;7.518;2023-02-28T04:39:15;-3.60;99.90
45807;DHT22;31507;51.494;7.518;2023-02-28T04:41:40;-3.60;99.90
45807;DHT22;31507;51.494;7.518;2023-02-28T04:44:06;-3.60;99.90
45807;DHT22;31507;51.494;7.518;2023-02-28T04:46:32;-3.60;99.90
45807;DHT22;31507;51.494;7.518;2023-02-28T04:48:57;-3.50;99.90
45807;DHT22;31507;51.494;7.518;2023-02-28T04:51:23;-3.50;99.90
45807;DHT22;31507;51.494;7.518;2023-02-28T04:53:49;-3.50;99.90
45807;DHT22;31507;51.494;7.518;2023-02-28T04:56:16;-3.50;99.90
45807;DHT22;31507;51.494;7.518;2023-02-28T04:58:42;-3.50;99.90
45807;DHT22;31507;51.494;7.518;2023-02-28T05:01:37;-3.60;99.90
45807;DHT22;31507;51.494;7.518;2023-02-28T05:04:04;-3.50;99.90
45807;DHT22;31507;51.494;7.518;2023-02-28T05:06:31;-3.60;99.90
45807;DHT22;31507;51.494;7.518;2023-02-28T05:08:58;-3.70;99.90
45807;DHT22;31507;51.494;7.518;2023-02-28T05:11:30;-3.70;99.90
45807;DHT22;31507;51.494;7.518;2023-02-28T05:14:04;-3.80;99.90
45807;DHT22;31507;51.494;7.518;2023-02-28T05:16:31;-3.90;99.90
45807;DHT22;31507;51.494;7.518;2023-02-28T05:18:57;-3.90;99.90
45807;DHT22;31507;51.494;7.518;2023-02-28T05:21:33;-3.90;99.90
45807;DHT22;31507;51.494;7.518;2023-02-28T05:24:02;-3.90;99.90
45807;DHT22;31507;51.494;7.518;2023-02-28T05:26:29;-3.90;99.90
45807;DHT22;31507;51.494;7.518;2023-02-28T05:28:55;-4.00;99.90
45807;DHT22;31507;51.494;7.518;2023-02-28T05:31:21;-3.90;99.90
45807;DHT22;31507;51.494;7.518;2023-02-28T05:33:47;-3.90;99.90
45807;DHT22;31507;51.494;7.518;2023-02-28T05:36:13;-3.90;99.90
45807;DHT22;31507;51.494;7.518;2023-02-28T05:38:38;-3.80;99.90
45807;DHT22;31507;51.494;7.518;2023-02-28T05:41:08;-3.80;99.90
45807;DHT22;31507;51.494;7.518;2023-02-28T05:43:35;-3.80;99.90
45807;DHT22;31507;51.494;7.518;2023-02-28T05:46:09;-3.90;99.90
45807;DHT22;31507;51.494;7.518;2023-02-28T05:48:35;-3.90;99.90
45807;DHT22;31507;51.494;7.518;2023-02-28T05:51:02;-3.90;99.90
45807;DHT22;31507;51.494;7.518;2023-02-28T05:53:28;-3.90;99.90
45807;DHT22;31507;51.494;7.518;2023-02-28T05:55:54;-3.90;99.90
45807;DHT22;31507;51.494;7.518;2023-02-28T05:58:21;-4.00;99.90
45807;DHT22;31507;51.494;7.518;2023-02-28T06:00:47;-4.10;99.90
45807;DHT22;31507;51.494;7.518;2023-02-28T06:03:12;-4.10;99.90
45807;DHT22;31507;51.494;7.518;2023-02-28T06:05:38;-4.20;99.90
45807;DHT22;31507;51.494;7.518;2023-02-28T06:08:04;-4.10;99.90
45807;DHT22;31507;51.494;7.518;2023-02-28T06:10:31;-4.20;99.90
45807;DHT22;31507;51.494;7.518;2023-02-28T06:13:00;-4.20;99.90
45807;DHT22;31507;51.494;7.518;2023-02-28T06:15:26;-4.20;99.90
45807;DHT22;31507;51.494;7.518;2023-02-28T06:17:52;-4.20;99.90
45807;DHT22;31507;51.494;7.518;2023-02-28T06:20:18;-4.30;99.90
45807;DHT22;31507;51.494;7.518;2023-02-28T06:22:43;-4.30;99.90
45807;DHT22;31507;51.494;7.518;2023-02-28T06:25:09;-4.30;99.90
45807;DHT22;31507;51.494;7.518;2023-02-28T06:27:35;-4.30;99.90
45807;DHT22;31507;51.494;7.518;2023-02-28T06:30:01;-4.30;99.90
45807;DHT22;31507;51.494;7.518;2023-02-28T06:32:27;-4.30;99.90
45807;DHT22;31507;51.494;7.518;2023-02-28T06:34:52;-4.40;99.90
45807;DHT22;31507;51.494;7.518;2023-02-28T06:37:18;-4.40;99.90
45807;DHT22;31507;51.494;7.518;2023-02-28T06:39:44;-4.40;99.90
45807;DHT22;31507;51.494;7.518;2023-02-28T06:42:10;-4.30;99.90
45807;DHT22;31507;51.494;7.518;2023-02-28T06:44:36;-4.40;99.90
45807;DHT22;31507;51.494;7.518;2023-02-28T06:47:03;-4.30;99.90
45807;DHT22;31507;51.494;7.518;2023-02-28T06:49:33;-4.30;99.90
45807;DHT22;31507;51.494;7.518;2023-02-28T06:51:59;-4.30;99.90
45807;DHT22;31507;51.494;7.518;2023-02-28T06:54:25;-4.20;99.90
45807;DHT22;31507;51.494;7.518;2023-02-28T06:56:50;-4.10;99.90
45807;DHT22;31507;51.494;7.518;2023-02-28T06:59:16;-4.10;99.90
45807;DHT22;31507;51.494;7.518;2023-02-28T07:01:42;-4.00;99.90
45807;DHT22;31507;51.494;7.518;2023-02-28T07:04:08;-4.00;99.90
45807;DHT22;31507;51.494;7.518;2023-02-28T07:06:33;-4.00;99.90
45807;DHT22;31507;51.494;7.518;2023-02-28T07:08:59;-4.00;99.90
45807;DHT22;31507;51.494;7.518;2023-02-28T07:11:26;-4.00;99.90
45807;DHT22;31507;51.494;7.518;2023-02-28T07:13:53;-3.90;99.90
45807;DHT22;31507;51.494;7.518;2023-02-28T07:16:19;-3.90;99.90
45807;DHT22;31507;51.494;7.518;2023-02-28T07:18:45;-3.80;99.90
45807;DHT22;31507;51.494;7.518;2023-02-28T07:21:11;-3.80;99.90
45807;DHT22;31507;51.494;7.518;2023-02-28T07:23:38;-3.70;99.90
45807;DHT22;31507;51.494;7.518;2023-02-28T07:26:05;-3.70;99.90
45807;DHT22;31507;51.494;7.518;2023-02-28T07:28:30;-3.60;99.90
45807;DHT22;31507;51.494;7.518;2023-02-28T07:30:56;-3.50;99.90
45807;DHT22;31507;51.494;7.518;2023-02-28T07:33:22;-3.40;99.90
45807;DHT22;31507;51.494;7.518;2023-02-28T07:35:49;-3.20;99.90
45807;DHT22;31507;51.494;7.518;2023-02-28T07:38:15;-3.10;99.90
45807;DHT22;31507;51.494;7.518;2023-02-28T07:40:41;-3.00;99.90
45807;DHT22;31507;51.494;7.518;2023-02-28T07:43:06;-2.90;99.90
45807;DHT22;31507;51.494;7.518;2023-02-28T07:45:32;-2.70;99.90
45807;DHT22;31507;51.494;7.518;2023-02-28T07:48:00;-2.60;99.90
45807;DHT22;31507;51.494;7.518;2023-02-28T07:50:26;-2.50;99.90
45807;DHT22;31507;51.494;7.518;2023-02-28T07:52:57;-2.30;99.90
45807;DHT22;31507;51.494;7.518;2023-02-28T07:55:22;-2.20;99.90
45807;DHT22;31507;51.494;7.518;2023-02-28T07:57:48;-2.10;99.90
45807;DHT22;31507;51.494;7.518;2023-02-28T08:00:14;-2.10;99.90
45807;DHT22;31507;51.494;7.518;2023-02-28T08:02:40;-2.10;99.90
45807;DHT22;31507;51.494;7.518;2023-02-28T08:05:06;-2.10;99.90
45807;DHT22;31507;51.494;7.518;2023-02-28T08:07:32;-2.10;99.90
45807;DHT22;31507;51.494;7.518;2023-02-28T08:09:58;-2.00;99.90
45807;DHT22;31507;51.494;7.518;2023-02-28T08:12:24;-1.90;99.90
45807;DHT22;31507;51.494;7.518;2023-02-28T08:14:50;-1.60;99.90
45807;DHT22;31507;51.494;7.518;2023-02-28T08:17:16;-1.30;99.90
45807;DHT22;31507;51.494;7.518;2023-02-28T08:19:41;-1.10;99.90
45807;DHT22;31507;51.494;7.518;2023-02-28T08:22:07;-1.10;99.90
45807;DHT22;31507;51.494;7.518;2023-02-28T08:24:33;-1.00;99.90
45807;DHT22;31507;51.494;7.518;2023-02-28T08:26:58;-0.80;99.90
45807;DHT22;31507;51.494;7.518;2023-02-28T08:29:24;-0.60;99.90
45807;DHT22;31507;51.494;7.518;2023-02-28T08:31:50;-0.30;99.90
45807;DHT22;31507;51.494;7.518;2023-02-28T08:34:16;-0.30;99.90
45807;DHT22;31507;51.494;7.518;2023-02-28T08:36:42;-0.30;99.90
45807;DHT22;31507;51.494;7.518;2023-02-28T08:39:10;0.00;99.90
45807;DHT22;31507;51.494;7.518;2023-02-28T08:41:36;0.30;99.90
45807;DHT22;31507;51.494;7.518;2023-02-28T08:44:02;0.50;99.90
45807;DHT22;31507;51.494;7.518;2023-02-28T08:46:28;0.70;99.90
45807;DHT22;31507;51.494;7.518;2023-02-28T08:48:57;1.00;99.90
45807;DHT22;31507;51.494;7.518;2023-02-28T08:51:28;1.20;99.90
45807;DHT22;31507;51.494;7.518;2023-02-28T08:53:56;1.50;99.90
45807;DHT22;31507;51.494;7.518;2023-02-28T08:56:22;1.80;99.90
45807;DHT22;31507;51.494;7.518;2023-02-28T08:58:49;2.00;99.90
45807;DHT22;31507;51.494;7.518;2023-02-28T09:01:20;2.30;99.90
45807;DHT22;31507;51.494;7.518;2023-02-28T09:03:48;2.50;99.90
45807;DHT22;31507;51.494;7.518;2023-02-28T09:06:15;2.60;99.30
45807;DHT22;31507;51.494;7.518;2023-02-28T09:08:41;2.80;99.90
45807;DHT22;31507;51.494;7.518;2023-02-28T09:11:08;3.10;97.40
45807;DHT22;31507;51.494;7.518;2023-02-28T09:13:34;3.30;97.70
45807;DHT22;31507;51.494;7.518;2023-02-28T09:16:01;3.60;95.40
45807;DHT22;31507;51.494;7.518;2023-02-28T09:18:28;3.80;96.50
45807;DHT22;31507;51.494;7.518;2023-02-28T09:20:53;3.70;95.50
45807;DHT22;31507;51.494;7.518;2023-02-28T09:23:19;3.70;94.50
45807;DHT22;31507;51.494;7.518;2023-02-28T09:25:50;3.70;92.80
45807;DHT22;31507;51.494;7.518;2023-02-28T09:28:17;3.90;92.60
45807;DHT22;31507;51.494;7.518;2023-02-28T09:30:45;4.40;91.50
45807;DHT22;31507;51.494;7.518;2023-02-28T09:33:12;4.70;90.20
45807;DHT22;31507;51.494;7.518;2023-02-28T09:35:37;4.80;87.90
45807;DHT22;31507;51.494;7.518;2023-02-28T09:38:04;5.00;87.30
45807;DHT22;31507;51.494;7.518;2023-02-28T09:40:30;5.30;82.40
45807;DHT22;31507;51.494;7.518;2023-02-28T09:42:57;5.40;82.40
45807;DHT22;31507;51.494;7.518;2023-02-28T09:45:47;5.40;81.60
45807;DHT22;31507;51.494;7.518;2023-02-28T09:48:14;5.40;82.10
45807;DHT22;31507;51.494;7.518;2023-02-28T09:50:46;4.50;81.30
45807;DHT22;31507;51.494;7.518;2023-02-28T09:53:34;3.50;84.90
45807;DHT22;31507;51.494;7.518;2023-02-28T09:56:21;2.60;84.50
45807;DHT22;31507;51.494;7.518;2023-02-28T09:59:13;2.10;86.80
45807;DHT22;31507;51.494;7.518;2023-02-28T10:10:26;3.00;88.30
45807;DHT22;31507;51.494;7.518;2023-02-28T10:12:56;4.50;81.80
45807;DHT22;31507;51.494;7.518;2023-02-28T10:15:25;5.10;80.20
45807;DHT22;31507;51.494;7.518;2023-02-28T10:17:56;5.60;79.30
45807;DHT22;31507;51.494;7.518;2023-02-28T10:20:24;5.70;76.40
45807;DHT22;31507;51.494;7.518;2023-02-28T10:23:12;6.20;76.10
45807;DHT22;31507;51.494;7.518;2023-02-28T10:25:40;6.30;73.80
45807;DHT22;31507;51.494;7.518;2023-02-28T10:28:14;6.20;72.40
45807;DHT22;31507;51.494;7.518;2023-02-28T10:30:47;6.20;70.40
45807;DHT22;31507;51.494;7.518;2023-02-28T10:35:50;6.40;67.80
45807;DHT22;31507;51.494;7.518;2023-02-28T10:38:34;6.30;69.70
45807;DHT22;31507;51.494;7.518;2023-02-28T10:43:29;6.20;69.90
45807;DHT22;31507;51.494;7.518;2023-02-28T10:51:04;6.60;66.70
45807;DHT22;31507;51.494;7.518;2023-02-28T10:53:39;6.60;67.70
45807;DHT22;31507;51.494;7.518;2023-02-28T10:56:15;7.00;67.50
45807;DHT22;31507;51.494;7.518;2023-02-28T11:01:41;6.90;63.00
45807;DHT22;31507;51.494;7.518;2023-02-28T11:04:18;6.70;63.50
45807;DHT22;31507;51.494;7.518;2023-02-28T11:06:45;6.90;63.30
45807;DHT22;31507;51.494;7.518;2023-02-28T11:09:28;6.80;63.40
45807;DHT22;31507;51.494;7.518;2023-02-28T11:11:55;7.20;63.70
45807;DHT22;31507;51.494;7.518;2023-02-28T11:14:25;6.90;64.30
45807;DHT22;31507;51.494;7.518;2023-02-28T11:16:52;6.70;65.10
45807;DHT22;31507;51.494;7.518;2023-02-28T11:19:28;7.00;66.00
45807;DHT22;31507;51.494;7.518;2023-02-28T11:22:06;7.50;64.30
45807;DHT22;31507;51.494;7.518;2023-02-28T11:24:36;7.30;62.30
45807;DHT22;31507;51.494;7.518;2023-02-28T11:27:02;7.00;63.40
45807;DHT22;31507;51.494;7.518;2023-02-28T11:29:31;6.70;65.00
45807;DHT22;31507;51.494;7.518;2023-02-28T11:34:36;7.00;63.40
45807;DHT22;31507;51.494;7.518;2023-02-28T11:37:05;6.90;65.10
45807;DHT22;31507;51.494;7.518;2023-02-28T11:39:36;6.80;63.90
45807;DHT22;31507;51.494;7.518;2023-02-28T11:50:09;6.30;64.10
45807;DHT22;31507;51.494;7.518;2023-02-28T11:52:56;6.10;66.40
45807;DHT22;31507;51.494;7.518;2023-02-28T11:58:40;6.30;64.80
45807;DHT22;31507;51.494;7.518;2023-02-28T12:01:22;6.10;64.40
45807;DHT22;31507;51.494;7.518;2023-02-28T12:07:09;6.30;67.80
45807;DHT22;31507;51.494;7.518;2023-02-28T12:09:44;6.40;66.70
45807;DHT22;31507;51.494;7.518;2023-02-28T12:20:25;6.40;67.50
45807;DHT22;31507;51.494;7.518;2023-02-28T12:26:10;6.20;67.50
45807;DHT22;31507;51.494;7.518;2023-02-28T12:28:43;5.90;67.90
45807;DHT22;31507;51.494;7.518;2023-02-28T12:33:52;5.70;68.40
45807;DHT22;31507;51.494;7.518;2023-02-28T12:36:20;5.50;69.00
45807;DHT22;31507;51.494;7.518;2023-02-28T12:44:32;6.20;67.30
45807;DHT22;31507;51.494;7.518;2023-02-28T12:47:03;6.10;70.10
45807;DHT22;31507;51.494;7.518;2023-02-28T12:49:55;5.90;67.10
45807;DHT22;31507;51.494;7.518;2023-02-28T12:58:05;5.90;69.20
45807;DHT22;31507;51.494;7.518;2023-02-28T13:00:38;6.00;68.20
45807;DHT22;31507;51.494;7.518;2023-02-28T13:06:05;6.10;67.90
45807;DHT22;31507;51.494;7.518;2023-02-28T13:08:44;6.00;68.60
45807;DHT22;31507;51.494;7.518;2023-02-28T13:11:46;5.90;68.70
45807;DHT22;31507;51.494;7.518;2023-02-28T13:14:36;5.80;70.30
45807;DHT22;31507;51.494;7.518;2023-02-28T13:17:11;5.70;69.20
45807;DHT22;31507;51.494;7.518;2023-02-28T13:19:38;5.70;68.50
45807;DHT22;31507;51.494;7.518;2023-02-28T13:22:09;5.80;69.40
45807;DHT22;31507;51.494;7.518;2023-02-28T13:24:49;5.90;70.00
45807;DHT22;31507;51.494;7.518;2023-02-28T13:38:43;5.60;68.60
45807;DHT22;31507;51.494;7.518;2023-02-28T13:47:21;5.60;68.60
45807;DHT22;31507;51.494;7.518;2023-02-28T13:51:52;5.60;70.10
45807;DHT22;31507;51.494;7.518;2023-02-28T13:54:37;5.90;70.80
45807;DHT22;31507;51.494;7.518;2023-02-28T14:00:43;6.00;70.80
45807;DHT22;31507;51.494;7.518;2023-02-28T14:03:32;6.20;71.50
45807;DHT22;31507;51.494;7.518;2023-02-28T14:11:41;6.20;71.50
45807;DHT22;31507;51.494;7.518;2023-02-28T14:14:08;6.40;71.40
45807;DHT22;31507;51.494;7.518;2023-02-28T14:16:48;6.40;70.50
45807;DHT22;31507;51.494;7.518;2023-02-28T14:19:17;6.30;71.20
45807;DHT22;31507;51.494;7.518;2023-02-28T14:30:29;6.50;70.60
45807;DHT22;31507;51.494;7.518;2023-02-28T14:36:27;6.30;71.00
45807;DHT22;31507;51.494;7.518;2023-02-28T14:39:04;6.20;71.40
45807;DHT22;31507;51.494;7.518;2023-02-28T14:41:39;6.10;70.60
45807;DHT22;31507;51.494;7.518;2023-02-28T14:44:21;6.00;70.70
45807;DHT22;31507;51.494;7.518;2023-02-28T14:46:53;6.00;71.60
45807;DHT22;31507;51.494;7.518;2023-02-28T14:49:35;6.10;71.00
45807;DHT22;31507;51.494;7.518;2023-02-28T14:54:36;6.00;70.20
45807;DHT22;31507;51.494;7.518;2023-02-28T14:57:02;6.10;70.20
45807;DHT22;31507;51.494;7.518;2023-02-28T14:59:34;6.00;70.70
45807;DHT22;31507;51.494;7.518;2023-02-28T15:02:36;6.00;70.10
45807;DHT22;31507;51.494;7.518;2023-02-28T15:07:46;6.10;69.50
45807;DHT22;31507;51.494;7.518;2023-02-28T15:12:55;6.10;68.90
45807;DHT22;31507;51.494;7.518;2023-02-28T15:15:23;6.00;68.80
45807;DHT22;31507;51.494;7.518;2023-02-28T15:17:53;6.00;69.70
45807;DHT22;31507;51.494;7.518;2023-02-28T15:20:22;5.90;69.10
45807;DHT22;31507;51.494;7.518;2023-02-28T15:22:51;5.80;69.10
45807;DHT22;31507;51.494;7.518;2023-02-28T15:25:20;5.80;69.20
45807;DHT22;31507;51.494;7.518;2023-02-28T15:27:52;5.80;69.50
45807;DHT22;31507;51.494;7.518;2023-02-28T15:30:27;5.70;69.40
45807;DHT22;31507;51.494;7.518;2023-02-28T15:35:44;5.60;70.20
45807;DHT22;31507;51.494;7.518;2023-02-28T15:38:23;5.50;70.70
45807;DHT22;31507;51.494;7.518;2023-02-28T15:40:54;5.40;71.30
45807;DHT22;31507;51.494;7.518;2023-02-28T15:43:32;5.20;71.70
45807;DHT22;31507;51.494;7.518;2023-02-28T15:46:06;5.00;72.70
45807;DHT22;31507;51.494;7.518;2023-02-28T15:48:44;5.10;72.90
45807;DHT22;31507;51.494;7.518;2023-02-28T15:51:20;5.40;72.50
45807;DHT22;31507;51.494;7.518;2023-02-28T15:54:04;5.50;72.10
45807;DHT22;31507;51.494;7.518;2023-02-28T15:56:32;5.20;72.70
45807;DHT22;31507;51.494;7.518;2023-02-28T15:59:02;4.70;73.30
45807;DHT22;31507;51.494;7.518;2023-02-28T16:01:32;4.40;74.60
45807;DHT22;31507;51.494;7.518;2023-02-28T16:04:13;4.20;74.60
45807;DHT22;31507;51.494;7.518;2023-02-28T16:06:45;4.00;75.50
45807;DHT22;31507;51.494;7.518;2023-02-28T16:09:15;3.90;75.80
45807;DHT22;31507;51.494;7.518;2023-02-28T16:11:53;3.70;76.10
45807;DHT22;31507;51.494;7.518;2023-02-28T16:14:22;3.60;76.40
45807;DHT22;31507;51.494;7.518;2023-02-28T16:17:06;3.60;76.30
45807;DHT22;31507;51.494;7.518;2023-02-28T16:19:34;3.50;77.10
45807;DHT22;31507;51.494;7.518;2023-02-28T16:22:00;3.40;77.50
45807;DHT22;31507;51.494;7.518;2023-02-28T16:24:26;3.40;77.50
45807;DHT22;31507;51.494;7.518;2023-02-28T16:26:53;3.30;77.30
45807;DHT22;31507;51.494;7.518;2023-02-28T16:29:32;3.30;77.50
45807;DHT22;31507;51.494;7.518;2023-02-28T16:32:00;3.20;78.10
45807;DHT22;31507;51.494;7.518;2023-02-28T16:34:26;3.20;78.20
45807;DHT22;31507;51.494;7.518;2023-02-28T16:36:52;3.10;78.10
45807;DHT22;31507;51.494;7.518;2023-02-28T16:39:18;3.10;77.90
45807;DHT22;31507;51.494;7.518;2023-02-28T16:41:47;3.00;78.20
45807;DHT22;31507;51.494;7.518;2023-02-28T16:44:28;2.90;78.60
45807;DHT22;31507;51.494;7.518;2023-02-28T16:46:54;2.80;79.10
45807;DHT22;31507;51.494;7.518;2023-02-28T16:49:20;2.70;79.50
45807;DHT22;31507;51.494;7.518;2023-02-28T16:51:46;2.70;80.10
45807;DHT22;31507;51.494;7.518;2023-02-28T16:54:12;2.70;80.60
45807;DHT22;31507;51.494;7.518;2023-02-28T16:56:39;2.70;80.10
45807;DHT22;31507;51.494;7.518;2023-02-28T16:59:07;2.60;80.60
45807;DHT22;31507;51.494;7.518;2023-02-28T17:01:33;2.50;81.20
45807;DHT22;31507;51.494;7.518;2023-02-28T17:03:59;2.50;81.50
45807;DHT22;31507;51.494;7.518;2023-02-28T17:06:27;2.40;81.60
45807;DHT22;31507;51.494;7.518;2023-02-28T17:08:57;2.30;81.80
45807;DHT22;31507;51.494;7.518;2023-02-28T17:11:24;2.30;82.40
45807;DHT22;31507;51.494;7.518;2023-02-28T17:13:50;2.30;82.00
45807;DHT22;31507;51.494;7.518;2023-02-28T17:16:30;2.20;82.20
45807;DHT22;31507;51.494;7.518;2023-02-28T17:18:59;2.20;82.60
45807;DHT22;31507;51.494;7.518;2023-02-28T17:21:25;2.10;82.40
45807;DHT22;31507;51.494;7.518;2023-02-28T17:23:51;2.00;82.80
45807;DHT22;31507;51.494;7.518;2023-02-28T17:26:18;1.90;83.20
45807;DHT22;31507;51.494;7.518;2023-02-28T17:28:50;1.90;83.50
45807;DHT22;31507;51.494;7.518;2023-02-28T17:31:16;1.80;83.60
45807;DHT22;31507;51.494;7.518;2023-02-28T17:33:42;1.80;84.50
45807;DHT22;31507;51.494;7.518;2023-02-28T17:36:16;1.80;84.70
45807;DHT22;31507;51.494;7.518;2023-02-28T17:38:43;1.70;84.80
45807;DHT22;31507;51.494;7.518;2023-02-28T17:41:12;1.60;85.30
45807;DHT22;31507;51.494;7.518;2023-02-28T17:43:38;1.50;86.20
45807;DHT22;31507;51.494;7.518;2023-02-28T17:46:04;1.40;86.40
45807;DHT22;31507;51.494;7.518;2023-02-28T17:48:33;1.40;86.60
45807;DHT22;31507;51.494;7.518;2023-02-28T17:51:01;1.30;87.00
45807;DHT22;31507;51.494;7.518;2023-02-28T17:53:26;1.20;87.60
45807;DHT22;31507;51.494;7.518;2023-02-28T17:55:55;1.10;87.60
45807;DHT22;31507;51.494;7.518;2023-02-28T17:58:21;1.10;87.70
45807;DHT22;31507;51.494;7.518;2023-02-28T18:00:46;1.00;88.00
45807;DHT22;31507;51.494;7.518;2023-02-28T18:03:13;0.90;88.20
45807;DHT22;31507;51.494;7.518;2023-02-28T18:05:38;0.80;88.60
45807;DHT22;31507;51.494;7.518;2023-02-28T18:08:04;0.80;88.70
45807;DHT22;31507;51.494;7.518;2023-02-28T18:10:30;0.80;89.40
45807;DHT22;31507;51.494;7.518;2023-02-28T18:12:59;0.80;89.60
45807;DHT22;31507;51.494;7.518;2023-02-28T18:15:24;0.90;89.70
45807;DHT22;31507;51.494;7.518;2023-02-28T18:17:50;0.80;89.60
45807;DHT22;31507;51.494;7.518;2023-02-28T18:20:17;0.80;90.20
45807;DHT22;31507;51.494;7.518;2023-02-28T18:22:43;0.70;90.20
45807;DHT22;31507;51.494;7.518;2023-02-28T18:25:10;0.60;90.40
45807;DHT22;31507;51.494;7.518;2023-02-28T18:27:39;0.60;90.50
45807;DHT22;31507;51.494;7.518;2023-02-28T18:30:05;0.50;90.90
45807;DHT22;31507;51.494;7.518;2023-02-28T18:32:31;0.50;91.00